Главная страница
METAR-TAF:

METAR-TAF

Аэропорты :

Sullivan County International Airport

Monticello, Нью-Йорк, США

широта: 41-42N, долгота: 074-48W, высота над уровнем моря: 428 м

Текущие метеонаблюдения

Эта сводка был подготовлена 1 час и 6 минут назад, в 10:56 UTC
Ветер 3 Узел от северо-восточный
Температура 8°C
Влажность 93%
Давление 1023 hPa
Видимость: 16.1 км
ясное небо

METAR: KMSV 251056Z AUTO 05003KT 10SM CLR 08/07 A3022 RMK AO2 SLP235 T00780072

Время: 08:02 (12:02 UTC)


TAF: отсутствует

Метеонаблюдения и прогнозы для более 4000 аэропортов (сводки METAR и TAF).

Имеющиеся станции представлены на карте желтыми и красными точками.

Чтобы увидеть название станции, наведите на нее мышь.

Затем щелкните, чтобы увидеть метеонаблюдения и метеопрогнозы.

Управление картой: чтобы увеличить масштаб, щелкните зеленые кнопки с черным крестиком; чтобы уменьшить масштаб, щелкните зеленую кнопку с тире; для просмотра соседних карт щелкайте зеленые стрелки.


METAR-TAF: